sensor_id;sensor_type;location;lat;lon;timestamp;P1;durP1;ratioP1;P2;durP2;ratioP2
66371;SDS011;53168;51.146;17.120;2024-01-25T00:00:50;3.95;;;3.01;;
66371;SDS011;53168;51.146;17.120;2024-01-25T00:03:41;3.64;;;2.75;;
66371;SDS011;53168;51.146;17.120;2024-01-25T00:06:15;3.31;;;2.48;;
66371;SDS011;53168;51.146;17.120;2024-01-25T00:08:52;4.21;;;3.06;;
66371;SDS011;53168;51.146;17.120;2024-01-25T00:11:26;4.24;;;3.10;;
66371;SDS011;53168;51.146;17.120;2024-01-25T00:14:07;4.13;;;3.08;;
66371;SDS011;53168;51.146;17.120;2024-01-25T00:16:41;4.01;;;3.01;;
66371;SDS011;53168;51.146;17.120;2024-01-25T00:19:21;4.30;;;3.20;;
66371;SDS011;53168;51.146;17.120;2024-01-25T00:21:55;4.33;;;3.17;;
66371;SDS011;53168;51.146;17.120;2024-01-25T00:24:31;4.49;;;3.23;;
66371;SDS011;53168;51.146;17.120;2024-01-25T00:27:11;4.98;;;3.57;;
66371;SDS011;53168;51.146;17.120;2024-01-25T00:29:45;4.80;;;3.50;;
66371;SDS011;53168;51.146;17.120;2024-01-25T00:32:20;4.52;;;3.34;;
66371;SDS011;53168;51.146;17.120;2024-01-25T00:34:56;5.19;;;3.67;;
66371;SDS011;53168;51.146;17.120;2024-01-25T00:37:32;5.27;;;3.67;;
66371;SDS011;53168;51.146;17.120;2024-01-25T00:40:08;5.22;;;3.61;;
66371;SDS011;53168;51.146;17.120;2024-01-25T00:42:44;7.52;;;5.19;;
66371;SDS011;53168;51.146;17.120;2024-01-25T00:45:23;6.03;;;4.19;;
66371;SDS011;53168;51.146;17.120;2024-01-25T00:47:59;5.42;;;3.84;;
66371;SDS011;53168;51.146;17.120;2024-01-25T00:50:34;5.76;;;4.03;;
66371;SDS011;53168;51.146;17.120;2024-01-25T00:53:10;5.70;;;4.04;;
66371;SDS011;53168;51.146;17.120;2024-01-25T00:55:46;5.64;;;3.93;;
66371;SDS011;53168;51.146;17.120;2024-01-25T00:58:21;5.75;;;4.07;;
66371;SDS011;53168;51.146;17.120;2024-01-25T01:00:57;4.67;;;3.28;;
66371;SDS011;53168;51.146;17.120;2024-01-25T01:03:33;5.53;;;3.87;;
66371;SDS011;53168;51.146;17.120;2024-01-25T01:06:09;5.10;;;3.60;;
66371;SDS011;53168;51.146;17.120;2024-01-25T01:08:44;5.17;;;3.65;;
66371;SDS011;53168;51.146;17.120;2024-01-25T01:11:19;5.19;;;3.65;;
66371;SDS011;53168;51.146;17.120;2024-01-25T01:13:54;5.18;;;3.60;;
66371;SDS011;53168;51.146;17.120;2024-01-25T01:16:27;4.57;;;3.21;;
66371;SDS011;53168;51.146;17.120;2024-01-25T01:19:02;4.92;;;3.45;;
66371;SDS011;53168;51.146;17.120;2024-01-25T01:21:37;4.79;;;3.30;;
66371;SDS011;53168;51.146;17.120;2024-01-25T01:24:52;5.34;;;3.62;;
66371;SDS011;53168;51.146;17.120;2024-01-25T01:27:25;5.50;;;3.75;;
66371;SDS011;53168;51.146;17.120;2024-01-25T01:29:59;4.96;;;3.39;;
66371;SDS011;53168;51.146;17.120;2024-01-25T01:32:34;4.85;;;3.36;;
66371;SDS011;53168;51.146;17.120;2024-01-25T01:35:08;4.34;;;3.01;;
66371;SDS011;53168;51.146;17.120;2024-01-25T01:37:42;4.90;;;3.36;;
66371;SDS011;53168;51.146;17.120;2024-01-25T01:40:16;5.26;;;3.60;;
66371;SDS011;53168;51.146;17.120;2024-01-25T01:42:50;4.89;;;3.34;;
66371;SDS011;53168;51.146;17.120;2024-01-25T01:45:28;6.02;;;4.03;;
66371;SDS011;53168;51.146;17.120;2024-01-25T01:48:24;4.33;;;3.11;;
66371;SDS011;53168;51.146;17.120;2024-01-25T01:50:58;4.07;;;2.94;;
66371;SDS011;53168;51.146;17.120;2024-01-25T01:53:33;5.34;;;3.74;;
66371;SDS011;53168;51.146;17.120;2024-01-25T01:56:08;5.00;;;3.47;;
66371;SDS011;53168;51.146;17.120;2024-01-25T01:58:44;5.65;;;3.86;;
66371;SDS011;53168;51.146;17.120;2024-01-25T02:01:21;5.42;;;3.71;;
66371;SDS011;53168;51.146;17.120;2024-01-25T02:03:57;5.16;;;3.55;;
66371;SDS011;53168;51.146;17.120;2024-01-25T02:06:31;5.25;;;3.66;;
66371;SDS011;53168;51.146;17.120;2024-01-25T02:09:06;5.04;;;3.44;;
66371;SDS011;53168;51.146;17.120;2024-01-25T02:11:40;5.14;;;3.45;;
66371;SDS011;53168;51.146;17.120;2024-01-25T02:14:13;5.58;;;3.69;;
66371;SDS011;53168;51.146;17.120;2024-01-25T02:16:47;6.10;;;4.08;;
66371;SDS011;53168;51.146;17.120;2024-01-25T02:19:21;5.69;;;3.84;;
66371;SDS011;53168;51.146;17.120;2024-01-25T02:21:55;5.84;;;3.91;;
66371;SDS011;53168;51.146;17.120;2024-01-25T02:24:35;5.65;;;3.84;;
66371;SDS011;53168;51.146;17.120;2024-01-25T02:29:17;5.36;;;3.67;;
66371;SDS011;53168;51.146;17.120;2024-01-25T02:31:53;5.81;;;3.97;;
66371;SDS011;53168;51.146;17.120;2024-01-25T02:34:27;5.40;;;3.72;;
66371;SDS011;53168;51.146;17.120;2024-01-25T02:37:01;4.20;;;2.96;;
66371;SDS011;53168;51.146;17.120;2024-01-25T02:39:35;4.45;;;3.14;;
66371;SDS011;53168;51.146;17.120;2024-01-25T02:42:12;4.86;;;3.42;;
66371;SDS011;53168;51.146;17.120;2024-01-25T02:44:46;4.58;;;3.20;;
66371;SDS011;53168;51.146;17.120;2024-01-25T02:47:22;4.19;;;2.99;;
66371;SDS011;53168;51.146;17.120;2024-01-25T02:49:56;5.25;;;3.62;;
66371;SDS011;53168;51.146;17.120;2024-01-25T02:52:30;5.45;;;3.75;;
66371;SDS011;53168;51.146;17.120;2024-01-25T02:55:04;4.82;;;3.36;;
66371;SDS011;53168;51.146;17.120;2024-01-25T02:57:39;4.88;;;3.37;;
66371;SDS011;53168;51.146;17.120;2024-01-25T03:00:13;5.48;;;3.82;;
66371;SDS011;53168;51.146;17.120;2024-01-25T03:02:50;4.99;;;3.59;;
66371;SDS011;53168;51.146;17.120;2024-01-25T03:05:24;4.57;;;3.28;;
66371;SDS011;53168;51.146;17.120;2024-01-25T03:08:00;4.38;;;3.14;;
66371;SDS011;53168;51.146;17.120;2024-01-25T03:10:34;4.61;;;3.30;;
66371;SDS011;53168;51.146;17.120;2024-01-25T03:13:08;4.81;;;3.38;;
66371;SDS011;53168;51.146;17.120;2024-01-25T03:15:42;5.09;;;3.65;;
66371;SDS011;53168;51.146;17.120;2024-01-25T03:18:16;5.01;;;3.53;;
66371;SDS011;53168;51.146;17.120;2024-01-25T03:20:51;4.79;;;3.40;;
66371;SDS011;53168;51.146;17.120;2024-01-25T03:23:28;4.79;;;3.39;;
66371;SDS011;53168;51.146;17.120;2024-01-25T03:26:02;4.97;;;3.56;;
66371;SDS011;53168;51.146;17.120;2024-01-25T03:28:37;4.45;;;3.32;;
66371;SDS011;53168;51.146;17.120;2024-01-25T03:31:11;4.11;;;3.10;;
66371;SDS011;53168;51.146;17.120;2024-01-25T03:33:45;3.98;;;3.01;;
66371;SDS011;53168;51.146;17.120;2024-01-25T03:36:20;4.22;;;3.14;;
66371;SDS011;53168;51.146;17.120;2024-01-25T03:38:54;4.54;;;3.31;;
66371;SDS011;53168;51.146;17.120;2024-01-25T03:41:28;4.61;;;3.38;;
66371;SDS011;53168;51.146;17.120;2024-01-25T03:44:02;4.86;;;3.49;;
66371;SDS011;53168;51.146;17.120;2024-01-25T03:46:36;4.60;;;3.27;;
66371;SDS011;53168;51.146;17.120;2024-01-25T03:49:10;4.72;;;3.33;;
66371;SDS011;53168;51.146;17.120;2024-01-25T03:51:53;4.07;;;2.90;;
66371;SDS011;53168;51.146;17.120;2024-01-25T03:54:29;4.29;;;3.10;;
66371;SDS011;53168;51.146;17.120;2024-01-25T03:57:04;4.00;;;2.90;;
66371;SDS011;53168;51.146;17.120;2024-01-25T03:59:38;4.58;;;3.28;;
66371;SDS011;53168;51.146;17.120;2024-01-25T04:02:13;5.16;;;3.72;;
66371;SDS011;53168;51.146;17.120;2024-01-25T04:04:48;4.71;;;3.36;;
66371;SDS011;53168;51.146;17.120;2024-01-25T04:07:24;5.00;;;3.49;;
66371;SDS011;53168;51.146;17.120;2024-01-25T04:09:58;4.45;;;3.10;;
66371;SDS011;53168;51.146;17.120;2024-01-25T04:12:32;4.23;;;2.97;;
66371;SDS011;53168;51.146;17.120;2024-01-25T04:15:07;5.33;;;3.71;;
66371;SDS011;53168;51.146;17.120;2024-01-25T04:17:42;5.15;;;3.58;;
66371;SDS011;53168;51.146;17.120;2024-01-25T04:20:17;7.47;;;5.24;;
66371;SDS011;53168;51.146;17.120;2024-01-25T04:23:00;5.92;;;4.12;;
66371;SDS011;53168;51.146;17.120;2024-01-25T04:25:35;5.77;;;3.97;;
66371;SDS011;53168;51.146;17.120;2024-01-25T04:28:09;5.22;;;3.61;;
66371;SDS011;53168;51.146;17.120;2024-01-25T04:31:24;4.70;;;3.36;;
66371;SDS011;53168;51.146;17.120;2024-01-25T04:34:01;4.22;;;3.03;;
66371;SDS011;53168;51.146;17.120;2024-01-25T04:36:35;4.16;;;3.10;;
66371;SDS011;53168;51.146;17.120;2024-01-25T04:39:10;4.49;;;3.36;;
66371;SDS011;53168;51.146;17.120;2024-01-25T04:42:05;5.29;;;3.87;;
66371;SDS011;53168;51.146;17.120;2024-01-25T04:44:39;4.58;;;3.32;;
66371;SDS011;53168;51.146;17.120;2024-01-25T04:47:14;4.83;;;3.54;;
66371;SDS011;53168;51.146;17.120;2024-01-25T04:49:48;5.14;;;3.74;;
66371;SDS011;53168;51.146;17.120;2024-01-25T04:52:22;4.36;;;3.14;;
66371;SDS011;53168;51.146;17.120;2024-01-25T04:54:59;5.27;;;3.66;;
66371;SDS011;53168;51.146;17.120;2024-01-25T04:57:32;5.14;;;3.60;;
66371;SDS011;53168;51.146;17.120;2024-01-25T05:00:08;4.97;;;3.52;;
66371;SDS011;53168;51.146;17.120;2024-01-25T05:02:46;4.80;;;3.39;;
66371;SDS011;53168;51.146;17.120;2024-01-25T05:05:19;5.34;;;3.80;;
66371;SDS011;53168;51.146;17.120;2024-01-25T05:07:53;4.93;;;3.54;;
66371;SDS011;53168;51.146;17.120;2024-01-25T05:13:36;5.05;;;3.63;;
66371;SDS011;53168;51.146;17.120;2024-01-25T05:16:10;4.74;;;3.41;;
66371;SDS011;53168;51.146;17.120;2024-01-25T05:18:44;5.49;;;4.00;;
66371;SDS011;53168;51.146;17.120;2024-01-25T05:21:19;4.28;;;3.16;;
66371;SDS011;53168;51.146;17.120;2024-01-25T05:23:53;3.98;;;2.93;;
66371;SDS011;53168;51.146;17.120;2024-01-25T05:26:30;3.86;;;2.89;;
66371;SDS011;53168;51.146;17.120;2024-01-25T05:29:04;4.26;;;3.17;;
66371;SDS011;53168;51.146;17.120;2024-01-25T05:31:38;5.02;;;3.74;;
66371;SDS011;53168;51.146;17.120;2024-01-25T05:34:13;4.23;;;3.12;;
66371;SDS011;53168;51.146;17.120;2024-01-25T05:36:47;4.44;;;3.26;;
66371;SDS011;53168;51.146;17.120;2024-01-25T05:39:21;4.33;;;3.15;;
66371;SDS011;53168;51.146;17.120;2024-01-25T05:41:55;4.34;;;3.10;;
66371;SDS011;53168;51.146;17.120;2024-01-25T05:44:29;4.74;;;3.36;;
66371;SDS011;53168;51.146;17.120;2024-01-25T05:47:04;4.77;;;3.41;;
66371;SDS011;53168;51.146;17.120;2024-01-25T05:49:38;4.47;;;3.22;;
66371;SDS011;53168;51.146;17.120;2024-01-25T05:52:12;4.48;;;3.29;;
66371;SDS011;53168;51.146;17.120;2024-01-25T05:54:47;4.63;;;3.41;;
66371;SDS011;53168;51.146;17.120;2024-01-25T05:57:21;5.26;;;3.89;;
66371;SDS011;53168;51.146;17.120;2024-01-25T05:59:55;4.98;;;3.70;;
66371;SDS011;53168;51.146;17.120;2024-01-25T06:02:36;4.37;;;3.19;;
66371;SDS011;53168;51.146;17.120;2024-01-25T06:05:11;4.78;;;3.54;;
66371;SDS011;53168;51.146;17.120;2024-01-25T06:07:48;4.45;;;3.39;;
66371;SDS011;53168;51.146;17.120;2024-01-25T06:10:22;4.34;;;3.36;;
66371;SDS011;53168;51.146;17.120;2024-01-25T06:12:56;4.30;;;3.29;;
66371;SDS011;53168;51.146;17.120;2024-01-25T06:15:31;4.03;;;3.13;;
66371;SDS011;53168;51.146;17.120;2024-01-25T06:18:05;4.62;;;3.56;;
66371;SDS011;53168;51.146;17.120;2024-01-25T06:20:39;4.19;;;3.24;;
66371;SDS011;53168;51.146;17.120;2024-01-25T06:23:13;4.67;;;3.55;;
66371;SDS011;53168;51.146;17.120;2024-01-25T06:25:47;4.90;;;3.75;;
66371;SDS011;53168;51.146;17.120;2024-01-25T06:28:22;4.58;;;3.58;;
66371;SDS011;53168;51.146;17.120;2024-01-25T06:30:56;5.41;;;4.08;;
66371;SDS011;53168;51.146;17.120;2024-01-25T06:33:33;4.96;;;3.79;;
66371;SDS011;53168;51.146;17.120;2024-01-25T06:36:08;4.72;;;3.52;;
66371;SDS011;53168;51.146;17.120;2024-01-25T06:38:43;5.24;;;3.93;;
66371;SDS011;53168;51.146;17.120;2024-01-25T06:41:18;5.28;;;3.93;;
66371;SDS011;53168;51.146;17.120;2024-01-25T06:43:54;4.95;;;3.65;;
66371;SDS011;53168;51.146;17.120;2024-01-25T06:46:29;5.44;;;4.07;;
66371;SDS011;53168;51.146;17.120;2024-01-25T06:49:03;5.61;;;4.10;;
66371;SDS011;53168;51.146;17.120;2024-01-25T06:51:37;5.52;;;4.01;;
66371;SDS011;53168;51.146;17.120;2024-01-25T06:54:18;5.64;;;4.10;;
66371;SDS011;53168;51.146;17.120;2024-01-25T06:56:52;5.30;;;3.82;;
66371;SDS011;53168;51.146;17.120;2024-01-25T06:59:28;6.44;;;4.61;;
66371;SDS011;53168;51.146;17.120;2024-01-25T07:02:05;5.77;;;4.21;;
66371;SDS011;53168;51.146;17.120;2024-01-25T07:04:40;5.57;;;4.04;;
66371;SDS011;53168;51.146;17.120;2024-01-25T07:07:15;4.96;;;3.65;;
66371;SDS011;53168;51.146;17.120;2024-01-25T07:09:49;5.42;;;3.99;;
66371;SDS011;53168;51.146;17.120;2024-01-25T07:12:23;5.83;;;4.09;;
66371;SDS011;53168;51.146;17.120;2024-01-25T07:14:57;6.18;;;4.27;;
66371;SDS011;53168;51.146;17.120;2024-01-25T07:17:33;6.54;;;4.56;;
66371;SDS011;53168;51.146;17.120;2024-01-25T07:20:09;6.12;;;4.30;;
66371;SDS011;53168;51.146;17.120;2024-01-25T07:22:44;6.31;;;4.47;;
66371;SDS011;53168;51.146;17.120;2024-01-25T07:25:19;5.92;;;4.27;;
66371;SDS011;53168;51.146;17.120;2024-01-25T07:27:53;6.23;;;4.41;;
66371;SDS011;53168;51.146;17.120;2024-01-25T07:30:27;5.82;;;4.04;;
66371;SDS011;53168;51.146;17.120;2024-01-25T07:33:09;6.69;;;4.57;;
66371;SDS011;53168;51.146;17.120;2024-01-25T07:35:43;6.68;;;4.57;;
66371;SDS011;53168;51.146;17.120;2024-01-25T07:38:18;5.59;;;3.87;;
66371;SDS011;53168;51.146;17.120;2024-01-25T07:40:51;5.48;;;3.82;;
66371;SDS011;53168;51.146;17.120;2024-01-25T07:43:25;5.35;;;3.81;;
66371;SDS011;53168;51.146;17.120;2024-01-25T07:45:59;5.17;;;3.71;;
66371;SDS011;53168;51.146;17.120;2024-01-25T07:48:37;5.86;;;4.13;;
66371;SDS011;53168;51.146;17.120;2024-01-25T07:51:13;5.05;;;3.54;;
66371;SDS011;53168;51.146;17.120;2024-01-25T07:53:47;5.43;;;3.78;;
66371;SDS011;53168;51.146;17.120;2024-01-25T07:56:21;5.30;;;3.69;;
66371;SDS011;53168;51.146;17.120;2024-01-25T07:58:56;6.22;;;4.34;;
66371;SDS011;53168;51.146;17.120;2024-01-25T08:01:31;5.42;;;3.81;;
66371;SDS011;53168;51.146;17.120;2024-01-25T08:04:08;5.85;;;4.11;;
66371;SDS011;53168;51.146;17.120;2024-01-25T08:06:43;5.71;;;4.01;;
66371;SDS011;53168;51.146;17.120;2024-01-25T08:09:17;6.05;;;4.21;;
66371;SDS011;53168;51.146;17.120;2024-01-25T08:11:51;6.55;;;4.45;;
66371;SDS011;53168;51.146;17.120;2024-01-25T08:14:25;5.52;;;3.77;;
66371;SDS011;53168;51.146;17.120;2024-01-25T08:16:59;6.31;;;4.29;;
66371;SDS011;53168;51.146;17.120;2024-01-25T08:19:33;5.98;;;4.11;;
66371;SDS011;53168;51.146;17.120;2024-01-25T08:22:08;5.96;;;4.18;;
66371;SDS011;53168;51.146;17.120;2024-01-25T08:24:42;5.95;;;4.09;;
66371;SDS011;53168;51.146;17.120;2024-01-25T08:27:17;5.62;;;3.87;;
66371;SDS011;53168;51.146;17.120;2024-01-25T08:29:52;6.40;;;4.34;;
66371;SDS011;53168;51.146;17.120;2024-01-25T08:32:26;5.20;;;3.61;;
66371;SDS011;53168;51.146;17.120;2024-01-25T08:35:00;5.89;;;4.16;;
66371;SDS011;53168;51.146;17.120;2024-01-25T08:37:35;5.49;;;3.92;;
66371;SDS011;53168;51.146;17.120;2024-01-25T08:40:11;5.70;;;4.06;;
66371;SDS011;53168;51.146;17.120;2024-01-25T08:42:46;5.75;;;4.04;;
66371;SDS011;53168;51.146;17.120;2024-01-25T08:45:20;6.11;;;4.18;;
66371;SDS011;53168;51.146;17.120;2024-01-25T08:47:54;5.91;;;4.01;;
66371;SDS011;53168;51.146;17.120;2024-01-25T08:50:30;6.32;;;4.27;;
66371;SDS011;53168;51.146;17.120;2024-01-25T08:53:05;6.28;;;4.20;;
66371;SDS011;53168;51.146;17.120;2024-01-25T08:55:39;5.79;;;3.90;;
66371;SDS011;53168;51.146;17.120;2024-01-25T08:58:14;6.02;;;4.09;;
66371;SDS011;53168;51.146;17.120;2024-01-25T09:00:48;5.95;;;4.10;;
66371;SDS011;53168;51.146;17.120;2024-01-25T09:03:25;5.52;;;3.81;;
66371;SDS011;53168;51.146;17.120;2024-01-25T09:05:59;5.72;;;3.97;;
66371;SDS011;53168;51.146;17.120;2024-01-25T09:08:37;5.63;;;3.85;;
66371;SDS011;53168;51.146;17.120;2024-01-25T09:11:11;6.15;;;4.18;;
66371;SDS011;53168;51.146;17.120;2024-01-25T09:13:47;5.25;;;3.65;;
66371;SDS011;53168;51.146;17.120;2024-01-25T09:16:21;5.21;;;3.70;;
66371;SDS011;53168;51.146;17.120;2024-01-25T09:18:55;4.87;;;3.44;;
66371;SDS011;53168;51.146;17.120;2024-01-25T09:21:30;5.44;;;3.83;;
66371;SDS011;53168;51.146;17.120;2024-01-25T09:24:04;5.15;;;3.61;;
66371;SDS011;53168;51.146;17.120;2024-01-25T09:26:38;5.11;;;3.63;;
66371;SDS011;53168;51.146;17.120;2024-01-25T09:41:11;5.75;;;3.78;;
66371;SDS011;53168;51.146;17.120;2024-01-25T09:43:42;5.73;;;3.89;;
66371;SDS011;53168;51.146;17.120;2024-01-25T09:46:14;4.99;;;3.43;;
66371;SDS011;53168;51.146;17.120;2024-01-25T09:48:48;4.92;;;3.41;;
66371;SDS011;53168;51.146;17.120;2024-01-25T09:51:19;5.18;;;3.58;;
66371;SDS011;53168;51.146;17.120;2024-01-25T09:53:51;4.95;;;3.40;;
66371;SDS011;53168;51.146;17.120;2024-01-25T09:56:26;4.98;;;3.48;;
66371;SDS011;53168;51.146;17.120;2024-01-25T09:59:02;5.02;;;3.53;;
66371;SDS011;53168;51.146;17.120;2024-01-25T10:01:40;4.63;;;3.26;;
66371;SDS011;53168;51.146;17.120;2024-01-25T10:04:12;4.81;;;3.40;;
66371;SDS011;53168;51.146;17.120;2024-01-25T10:06:47;4.53;;;3.19;;
66371;SDS011;53168;51.146;17.120;2024-01-25T10:09:22;4.91;;;3.46;;
66371;SDS011;53168;51.146;17.120;2024-01-25T10:11:59;4.93;;;3.48;;
66371;SDS011;53168;51.146;17.120;2024-01-25T10:14:48;4.80;;;3.36;;
66371;SDS011;53168;51.146;17.120;2024-01-25T10:17:21;4.56;;;3.19;;
66371;SDS011;53168;51.146;17.120;2024-01-25T10:19:53;5.24;;;3.61;;
66371;SDS011;53168;51.146;17.120;2024-01-25T10:22:26;5.13;;;3.58;;
66371;SDS011;53168;51.146;17.120;2024-01-25T10:24:59;5.08;;;3.52;;
66371;SDS011;53168;51.146;17.120;2024-01-25T10:27:34;5.47;;;3.66;;
66371;SDS011;53168;51.146;17.120;2024-01-25T10:30:08;5.36;;;3.65;;
66371;SDS011;53168;51.146;17.120;2024-01-25T10:32:42;4.89;;;3.39;;
66371;SDS011;53168;51.146;17.120;2024-01-25T10:35:16;4.89;;;3.44;;
66371;SDS011;53168;51.146;17.120;2024-01-25T10:37:54;4.08;;;2.88;;
66371;SDS011;53168;51.146;17.120;2024-01-25T10:40:28;4.63;;;3.24;;
66371;SDS011;53168;51.146;17.120;2024-01-25T10:42:58;5.30;;;3.69;;
66371;SDS011;53168;51.146;17.120;2024-01-25T10:45:30;5.83;;;4.01;;
66371;SDS011;53168;51.146;17.120;2024-01-25T10:48:01;4.69;;;3.23;;
66371;SDS011;53168;51.146;17.120;2024-01-25T10:50:37;5.52;;;3.80;;
66371;SDS011;53168;51.146;17.120;2024-01-25T10:53:13;4.80;;;3.26;;
66371;SDS011;53168;51.146;17.120;2024-01-25T10:55:47;5.47;;;3.67;;
66371;SDS011;53168;51.146;17.120;2024-01-25T10:58:17;5.56;;;3.86;;
66371;SDS011;53168;51.146;17.120;2024-01-25T11:00:54;4.67;;;3.31;;
66371;SDS011;53168;51.146;17.120;2024-01-25T11:03:26;5.05;;;3.51;;
66371;SDS011;53168;51.146;17.120;2024-01-25T11:06:09;4.17;;;2.91;;
66371;SDS011;53168;51.146;17.120;2024-01-25T11:08:48;5.89;;;4.02;;
66371;SDS011;53168;51.146;17.120;2024-01-25T11:11:20;6.27;;;4.24;;
66371;SDS011;53168;51.146;17.120;2024-01-25T11:13:55;6.08;;;4.19;;
66371;SDS011;53168;51.146;17.120;2024-01-25T11:16:28;4.56;;;3.20;;
66371;SDS011;53168;51.146;17.120;2024-01-25T11:19:04;4.86;;;3.41;;
66371;SDS011;53168;51.146;17.120;2024-01-25T11:21:40;4.94;;;3.44;;
66371;SDS011;53168;51.146;17.120;2024-01-25T11:24:20;5.29;;;3.69;;
66371;SDS011;53168;51.146;17.120;2024-01-25T11:26:54;4.74;;;3.32;;
66371;SDS011;53168;51.146;17.120;2024-01-25T11:29:24;5.00;;;3.53;;
66371;SDS011;53168;51.146;17.120;2024-01-25T11:31:55;4.84;;;3.41;;
66371;SDS011;53168;51.146;17.120;2024-01-25T11:34:26;4.95;;;3.49;;
66371;SDS011;53168;51.146;17.120;2024-01-25T11:36:56;5.71;;;4.02;;
66371;SDS011;53168;51.146;17.120;2024-01-25T11:39:26;6.96;;;4.92;;
66371;SDS011;53168;51.146;17.120;2024-01-25T11:41:56;5.40;;;3.86;;
66371;SDS011;53168;51.146;17.120;2024-01-25T11:44:29;4.76;;;3.39;;
66371;SDS011;53168;51.146;17.120;2024-01-25T11:46:59;4.79;;;3.40;;
66371;SDS011;53168;51.146;17.120;2024-01-25T11:49:32;4.84;;;3.49;;
66371;SDS011;53168;51.146;17.120;2024-01-25T11:52:10;4.46;;;3.20;;
66371;SDS011;53168;51.146;17.120;2024-01-25T11:54:44;4.79;;;3.45;;
66371;SDS011;53168;51.146;17.120;2024-01-25T11:57:15;5.00;;;3.62;;
66371;SDS011;53168;51.146;17.120;2024-01-25T11:59:46;4.64;;;3.33;;
66371;SDS011;53168;51.146;17.120;2024-01-25T12:02:17;5.08;;;3.59;;
66371;SDS011;53168;51.146;17.120;2024-01-25T12:04:47;5.29;;;3.68;;
66371;SDS011;53168;51.146;17.120;2024-01-25T12:07:23;4.83;;;3.38;;
66371;SDS011;53168;51.146;17.120;2024-01-25T12:10:01;5.19;;;3.59;;
66371;SDS011;53168;51.146;17.120;2024-01-25T12:12:34;5.34;;;3.71;;
66371;SDS011;53168;51.146;17.120;2024-01-25T12:15:07;4.95;;;3.46;;
66371;SDS011;53168;51.146;17.120;2024-01-25T12:17:41;5.42;;;3.79;;
66371;SDS011;53168;51.146;17.120;2024-01-25T12:20:11;4.49;;;3.13;;
66371;SDS011;53168;51.146;17.120;2024-01-25T12:24:33;3.63;;;2.80;;
66371;SDS011;53168;51.146;17.120;2024-01-25T12:27:21;3.99;;;3.01;;
66371;SDS011;53168;51.146;17.120;2024-01-25T12:29:57;3.89;;;2.92;;
66371;SDS011;53168;51.146;17.120;2024-01-25T12:32:31;3.76;;;2.75;;
66371;SDS011;53168;51.146;17.120;2024-01-25T12:35:09;3.79;;;2.78;;
66371;SDS011;53168;51.146;17.120;2024-01-25T12:37:54;4.14;;;2.98;;
66371;SDS011;53168;51.146;17.120;2024-01-25T12:40:28;4.47;;;3.20;;
66371;SDS011;53168;51.146;17.120;2024-01-25T12:43:03;4.66;;;3.30;;
66371;SDS011;53168;51.146;17.120;2024-01-25T12:45:39;4.56;;;3.16;;
66371;SDS011;53168;51.146;17.120;2024-01-25T12:48:14;4.43;;;3.12;;
66371;SDS011;53168;51.146;17.120;2024-01-25T12:50:51;4.76;;;3.39;;
66371;SDS011;53168;51.146;17.120;2024-01-25T12:53:29;5.56;;;3.91;;
66371;SDS011;53168;51.146;17.120;2024-01-25T12:56:05;5.71;;;4.12;;
66371;SDS011;53168;51.146;17.120;2024-01-25T12:58:39;5.05;;;3.61;;
66371;SDS011;53168;51.146;17.120;2024-01-25T13:01:14;4.73;;;3.38;;
66371;SDS011;53168;51.146;17.120;2024-01-25T13:03:50;4.94;;;3.60;;
66371;SDS011;53168;51.146;17.120;2024-01-25T13:06:24;4.95;;;3.60;;
66371;SDS011;53168;51.146;17.120;2024-01-25T13:09:00;4.21;;;3.01;;
66371;SDS011;53168;51.146;17.120;2024-01-25T13:15:40;4.05;;;2.92;;
66371;SDS011;53168;51.146;17.120;2024-01-25T13:21:55;4.69;;;3.29;;
66371;SDS011;53168;51.146;17.120;2024-01-25T13:24:32;4.50;;;3.16;;
66371;SDS011;53168;51.146;17.120;2024-01-25T13:27:10;3.90;;;2.76;;
66371;SDS011;53168;51.146;17.120;2024-01-25T13:30:32;3.91;;;2.83;;
66371;SDS011;53168;51.146;17.120;2024-01-25T13:33:38;3.94;;;2.87;;
66371;SDS011;53168;51.146;17.120;2024-01-25T13:36:16;4.06;;;2.91;;
66371;SDS011;53168;51.146;17.120;2024-01-25T13:38:51;3.66;;;2.62;;
66371;SDS011;53168;51.146;17.120;2024-01-25T13:41:36;4.06;;;2.88;;
66371;SDS011;53168;51.146;17.120;2024-01-25T13:47:37;4.47;;;3.04;;
66371;SDS011;53168;51.146;17.120;2024-01-25T13:50:10;4.73;;;3.19;;
66371;SDS011;53168;51.146;17.120;2024-01-25T13:52:45;5.50;;;3.73;;
66371;SDS011;53168;51.146;17.120;2024-01-25T13:55:30;4.85;;;3.31;;
66371;SDS011;53168;51.146;17.120;2024-01-25T13:58:04;5.22;;;3.64;;
66371;SDS011;53168;51.146;17.120;2024-01-25T14:00:41;4.24;;;2.98;;
66371;SDS011;53168;51.146;17.120;2024-01-25T14:03:15;4.16;;;2.95;;
66371;SDS011;53168;51.146;17.120;2024-01-25T14:05:50;4.96;;;3.53;;
66371;SDS011;53168;51.146;17.120;2024-01-25T14:08:26;4.35;;;3.06;;
66371;SDS011;53168;51.146;17.120;2024-01-25T14:11:00;4.96;;;3.45;;
66371;SDS011;53168;51.146;17.120;2024-01-25T14:13:35;4.51;;;3.16;;
66371;SDS011;53168;51.146;17.120;2024-01-25T14:16:09;4.83;;;3.33;;
66371;SDS011;53168;51.146;17.120;2024-01-25T14:18:47;5.81;;;3.97;;
66371;SDS011;53168;51.146;17.120;2024-01-25T14:21:22;5.93;;;4.10;;
66371;SDS011;53168;51.146;17.120;2024-01-25T14:23:56;4.86;;;3.38;;
66371;SDS011;53168;51.146;17.120;2024-01-25T14:26:30;4.64;;;3.27;;
66371;SDS011;53168;51.146;17.120;2024-01-25T14:29:07;4.96;;;3.54;;
66371;SDS011;53168;51.146;17.120;2024-01-25T14:31:41;4.94;;;3.54;;
66371;SDS011;53168;51.146;17.120;2024-01-25T14:34:17;4.42;;;3.22;;
66371;SDS011;53168;51.146;17.120;2024-01-25T14:36:52;4.38;;;3.30;;
66371;SDS011;53168;51.146;17.120;2024-01-25T14:39:26;4.13;;;3.13;;
66371;SDS011;53168;51.146;17.120;2024-01-25T14:42:00;3.59;;;2.74;;
66371;SDS011;53168;51.146;17.120;2024-01-25T14:44:42;3.66;;;2.82;;
66371;SDS011;53168;51.146;17.120;2024-01-25T14:47:17;3.76;;;2.79;;
66371;SDS011;53168;51.146;17.120;2024-01-25T14:49:52;5.34;;;3.89;;
66371;SDS011;53168;51.146;17.120;2024-01-25T14:52:26;5.70;;;4.22;;
66371;SDS011;53168;51.146;17.120;2024-01-25T14:55:03;4.03;;;2.92;;
66371;SDS011;53168;51.146;17.120;2024-01-25T14:57:40;4.72;;;3.36;;
66371;SDS011;53168;51.146;17.120;2024-01-25T15:00:15;4.79;;;3.47;;
66371;SDS011;53168;51.146;17.120;2024-01-25T15:02:51;4.14;;;3.06;;
66371;SDS011;53168;51.146;17.120;2024-01-25T15:05:27;3.41;;;2.56;;
66371;SDS011;53168;51.146;17.120;2024-01-25T15:08:03;3.72;;;2.77;;
66371;SDS011;53168;51.146;17.120;2024-01-25T15:10:38;3.75;;;2.76;;
66371;SDS011;53168;51.146;17.120;2024-01-25T15:13:12;3.73;;;2.72;;
66371;SDS011;53168;51.146;17.120;2024-01-25T15:15:49;4.27;;;3.06;;
66371;SDS011;53168;51.146;17.120;2024-01-25T15:18:23;4.34;;;3.07;;
66371;SDS011;53168;51.146;17.120;2024-01-25T15:20:58;5.05;;;3.57;;
66371;SDS011;53168;51.146;17.120;2024-01-25T15:23:33;5.06;;;3.57;;
66371;SDS011;53168;51.146;17.120;2024-01-25T15:26:07;5.81;;;4.06;;
66371;SDS011;53168;51.146;17.120;2024-01-25T15:28:41;5.26;;;3.74;;
66371;SDS011;53168;51.146;17.120;2024-01-25T15:31:17;5.18;;;3.65;;
66371;SDS011;53168;51.146;17.120;2024-01-25T15:33:52;4.77;;;3.37;;
66371;SDS011;53168;51.146;17.120;2024-01-25T15:36:26;5.26;;;3.88;;
66371;SDS011;53168;51.146;17.120;2024-01-25T15:39:00;4.33;;;3.23;;
66371;SDS011;53168;51.146;17.120;2024-01-25T15:41:34;4.24;;;3.10;;
66371;SDS011;53168;51.146;17.120;2024-01-25T15:44:09;4.84;;;3.50;;
66371;SDS011;53168;51.146;17.120;2024-01-25T15:46:43;4.47;;;3.26;;
66371;SDS011;53168;51.146;17.120;2024-01-25T15:49:20;4.77;;;3.51;;
66371;SDS011;53168;51.146;17.120;2024-01-25T15:51:58;4.60;;;3.39;;